Terminal Aerodrome Forecast
Issued by NWS

Home | Current Version | Previous Version | Text Only | Print | Product List | Glossary On
Versions: 1 2 3 4 5 6 7 8 9 10 11 12 13 14 15 16 17 18
000
FTUS41 KRNK 281309 AAA
TAFBCB
TAF AMD
KBCB 281309Z 2813/2912 00000KT P6SM -SHRA SCT015 OVC050
      TEMPO 2813/2815 3SM SHRA OVC025
     FM281700 28009KT P6SM BKN100
     FM282200 29010KT P6SM SCT100
     FM290500 31005KT P6SM SCT035=

USA.gov is the U.S. government's official web portal to all federal, state and local government web resources and services.